Haines Airport Haines US
ICAO: PAHN
IATA:
Category: Medium
Scheduled Services:

Elevation: 15 ft
TransAlt. 18000 ft.

Airport Communications:
ASOS:135.75
ANCHORAGE CNTR:132.3
CTAF:122.9
JUNEAU RDO:122.6
TWEB:24.5

PAHN Zoom In..

If you have problems with the map follow the link
https://www.worldairports.se/pages/airport.php?
ICAO=PAHN

Runways:

(A) RW 08 length 4000 ft width 100 ft
---- / hdg 86

(B) RW 26 length 4000 ft width 100 ft
---- / hdg 266

Location; PAHN
Day. 22 / Time. 15.54 Zulu
* Altimeter: 30.03
* Temperature: -06° c. -21.2°f.
* Wind from: 320° Speed 06 kn.
Dewpoint: -13° c.
Visibility: 10 Statute Miles.
Clouds: Few 11000 ft.

PAHN 221554Z AUTO 32006KT 10SM FEW110 M06/M13 A3003 RMK AO2 SLP170 T10561128 TSNO


Wind From 320°
Speed 06 kn.

 
 
jpsmedia.com for Web Design worldairports.se 2019   terms of use